Time;durP1;ratioP1;P1;durP2;ratioP2;P2;SDS_P1;SDS_P2;PMS_P1;PMS_P2;Temp;Humidity;BMP_temperature;BMP_pressure;BME280_temperature;BME280_humidity;BME280_pressure;Samples;Min_cycle;Max_cycle;Signal;HPM_P1;HPM_P2
2020/12/25 09:25:39;;;;;;;7.50;5.07;;;;;;;4.11;97.03;99264.19;5168696;27;20551;-83
2020/12/25 09:28:06;;;;;;;9.87;4.70;;;;;;;4.65;96.68;99249.38;5150439;27;40201;-86
2020/12/25 09:30:33;;;;;;;4.70;4.10;;;;;;;5.06;92.60;99252.41;5142816;27;43381;-88
2020/12/25 09:33:00;;;;;;;5.73;4.13;;;;;;;5.56;87.76;99268.19;5150229;27;44966;-86
2020/12/25 09:35:27;;;;;;;5.63;4.17;;;;;;;5.77;85.20;99275.28;5235147;22;42908;-86
2020/12/25 09:37:54;;;;;;;4.33;3.50;;;;;;;5.93;82.72;99278.25;5105503;28;40528;-85
2020/12/25 09:40:22;;;;;;;4.00;3.57;;;;;;;5.98;80.61;99286.81;5088536;28;43165;-83
2020/12/25 09:42:50;;;;;;;4.40;3.60;;;;;;;6.02;79.81;99280.53;5104429;28;42474;-85
2020/12/25 09:45:17;;;;;;;4.63;3.87;;;;;;;6.03;78.16;99285.72;5088176;28;43076;-87
2020/12/25 09:47:44;;;;;;;5.50;3.37;;;;;;;5.93;78.46;99247.56;5192381;22;40700;-84
2020/12/25 09:50:11;;;;;;;4.17;3.47;;;;;;;6.46;78.22;99289.34;5124080;27;42419;-82
2020/12/25 09:52:38;;;;;;;4.33;3.60;;;;;;;6.63;77.38;99276.38;5124963;27;43580;-82
2020/12/25 09:55:05;;;;;;;5.10;3.40;;;;;;;7.02;75.80;99291.50;5142542;27;42318;-84
2020/12/25 09:57:32;;;;;;;5.63;3.10;;;;;;;7.36;74.00;99296.19;5107897;27;40252;-84
2020/12/25 10:00:08;;;;;;;3.73;2.83;;;;;;;7.55;74.11;99295.34;5203245;22;41386;-81
2020/12/25 10:02:36;;;;;;;3.97;3.07;;;;;;;7.48;72.25;99293.91;5091153;28;42267;-83
2020/12/25 10:05:03;;;;;;;3.67;2.80;;;;;;;7.26;71.56;99298.38;5082450;28;43989;-84
2020/12/25 10:07:31;;;;;;;4.77;3.00;;;;;;;7.06;71.95;99296.56;5105153;28;40426;-82
2020/12/25 10:09:58;;;;;;;6.50;3.00;;;;;;;6.82;71.52;99289.66;5177978;22;43131;-84
2020/12/25 10:12:25;;;;;;;3.57;3.13;;;;;;;6.74;72.10;99300.50;5087783;27;43758;-85
2020/12/25 10:14:52;;;;;;;2.93;2.37;;;;;;;6.56;71.35;99295.09;5123587;27;42338;-87
2020/12/25 10:17:20;;;;;;;4.07;2.90;;;;;;;6.41;72.09;99291.31;5107630;27;40316;-89
2020/12/25 10:19:47;;;;;;;3.17;2.87;;;;;;;6.42;72.99;99303.56;5104025;27;42291;-85
2020/12/25 10:22:15;;;;;;;4.83;2.60;;;;;;;6.31;72.81;99289.91;5168704;22;44102;-89
2020/12/25 10:24:42;;;;;;;3.93;3.10;;;;;;;6.26;71.82;99312.94;5080811;28;43295;-84
2020/12/25 10:27:09;;;;;;;5.53;3.40;;;;;;;6.18;72.68;99299.22;5080437;28;40054;-87
2020/12/25 10:29:36;;;;;;;3.50;3.20;;;;;;;5.96;73.02;99265.81;5080131;28;41748;-87
2020/12/25 10:32:04;;;;;;;3.90;2.80;;;;;;;6.03;73.55;99288.34;5063098;28;44251;-84
2020/12/25 10:34:32;;;;;;;4.80;3.20;;;;;;;6.07;73.13;99300.47;5176083;22;44319;-85
2020/12/25 10:37:00;;;;;;;4.40;3.10;;;;;;;6.06;72.98;99300.50;5074825;28;40433;-84
2020/12/25 10:39:27;;;;;;;4.10;3.40;;;;;;;6.00;72.77;99301.59;5073342;28;42248;-82
2020/12/25 10:41:54;;;;;;;4.70;3.20;;;;;;;5.93;73.05;99288.75;5072842;28;44761;-85
2020/12/25 10:44:21;;;;;;;4.57;3.30;;;;;;;5.91;73.36;99269.56;5072492;28;43289;-87
2020/12/25 10:46:49;;;;;;;4.07;2.90;;;;;;;6.02;73.53;99304.19;5129327;22;40571;-86
2020/12/25 10:49:16;;;;;;;6.43;3.23;;;;;;;6.06;72.55;99301.38;5049632;28;41875;-84
2020/12/25 10:51:46;;;;;;;5.50;2.80;;;;;;;5.91;72.05;99287.97;5033165;28;43529;-85
2020/12/25 10:54:13;;;;;;;3.83;2.90;;;;;;;5.93;71.80;99300.13;5045017;28;42091;-86
2020/12/25 10:56:40;;;;;;;5.00;2.80;;;;;;;5.97;72.14;99309.59;5110859;22;41226;-86
2020/12/25 10:59:08;;;;;;;6.13;4.47;;;;;;;5.98;72.34;99306.06;5090326;28;41631;-82
2020/12/25 11:01:35;;;;;;;8.93;6.03;;;;;;;5.98;72.55;99316.56;5089263;28;42720;-86
2020/12/25 11:04:02;;;;;;;6.40;5.10;;;;;;;5.87;72.54;99289.78;5072427;28;43745;-83
2020/12/25 11:06:33;;;;;;;9.87;8.60;;;;;;;5.89;72.49;99303.78;5072946;28;40445;-82
2020/12/25 11:09:02;;;;;;;10.47;9.03;;;;;;;5.91;72.68;99312.47;5169843;22;41379;-84
2020/12/25 11:11:31;;;;;;;6.17;3.70;;;;;;;5.84;71.51;99331.09;5051391;28;43306;-84
2020/12/25 11:13:58;;;;;;;5.97;3.60;;;;;;;5.72;71.97;99306.97;5052567;28;42892;-84
2020/12/25 11:16:27;;;;;;;3.17;2.50;;;;;;;5.77;71.36;99333.97;5052693;28;41424;-83
2020/12/25 11:18:55;;;;;;;5.90;3.57;;;;;;;5.72;71.61;99321.88;5052443;28;42018;-83
2020/12/25 11:21:23;;;;;;;4.37;3.20;;;;;;;5.77;71.47;99327.84;5152444;22;44087;-85
2020/12/25 11:23:51;;;;;;;4.60;2.57;;;;;;;5.77;71.55;99333.09;5089307;28;42485;-83
2020/12/25 11:26:24;;;;;;;3.43;2.50;;;;;;;5.73;71.17;99321.81;5072584;28;41613;-84
2020/12/25 11:28:52;;;;;;;4.13;3.03;;;;;;;5.56;71.28;99304.97;5090082;28;41214;-82
2020/12/25 11:31:20;;;;;;;4.37;3.20;;;;;;;5.69;71.24;99327.22;5179161;22;42697;-83
2020/12/25 11:33:47;;;;;;;4.47;3.10;;;;;;;5.71;71.12;99338.56;5067455;28;40420;-84
2020/12/25 11:36:16;;;;;;;3.57;3.00;;;;;;;5.73;70.77;99334.09;5052107;28;40538;-85
2020/12/25 11:38:43;;;;;;;4.07;3.10;;;;;;;5.63;70.22;99330.94;5052383;28;43671;-84
2020/12/25 11:41:12;;;;;;;5.47;4.77;;;;;;;5.72;70.58;99343.75;5068481;28;42689;-82
2020/12/25 11:43:41;;;;;;;5.10;3.87;;;;;;;5.76;71.55;99339.25;5144114;22;42789;-83
2020/12/25 11:46:09;;;;;;;7.33;4.33;;;;;;;5.62;71.27;99321.34;5083921;28;39947;-82
2020/12/25 11:48:36;;;;;;;5.43;4.73;;;;;;;5.75;70.57;99340.16;5050299;28;42293;-85
2020/12/25 11:51:04;;;;;;;4.83;3.10;;;;;;;5.70;70.67;99340.31;5069288;28;42577;-85
2020/12/25 11:53:31;;;;;;;4.50;3.73;;;;;;;5.75;70.62;99340.16;5087564;28;43748;-86
2020/12/25 11:55:59;;;;;;;6.77;4.17;;;;;;;5.73;71.07;99328.84;5149507;22;40411;-83
2020/12/25 11:58:26;;;;;;;8.33;3.77;;;;;;;5.82;71.26;99333.78;5068678;28;41674;-82
2020/12/25 12:00:54;;;;;;;7.57;4.73;;;;;;;5.88;70.54;99344.13;5051995;28;44326;-83
2020/12/25 12:03:23;;;;;;;6.43;5.20;;;;;;;5.87;70.73;99337.09;5052041;28;43171;-85
2020/12/25 12:05:50;;;;;;;4.50;3.97;;;;;;;5.94;70.61;99340.41;5051773;28;40568;-84
2020/12/25 12:08:17;;;;;;;4.40;3.03;;;;;;;5.93;69.98;99347.44;5171153;22;41518;-85
2020/12/25 12:10:44;;;;;;;4.80;3.77;;;;;;;5.92;69.50;99345.72;5072204;28;44442;-83
2020/12/25 12:13:12;;;;;;;5.07;4.00;;;;;;;5.85;68.74;99343.31;5088823;28;42765;-83
2020/12/25 12:15:40;;;;;;;4.37;3.83;;;;;;;5.96;68.97;99356.97;5088574;28;40305;-83
2020/12/25 12:18:08;;;;;;;5.40;3.80;;;;;;;5.96;69.17;99351.72;5156663;22;43698;-82
2020/12/25 12:20:36;;;;;;;4.37;3.40;;;;;;;5.88;68.96;99341.47;5051711;28;44435;-86
2020/12/25 12:23:04;;;;;;;4.47;4.07;;;;;;;5.95;68.41;99358.75;5052309;28;43640;-83
2020/12/25 12:25:31;;;;;;;3.83;2.97;;;;;;;5.99;68.15;99360.34;5051462;28;40385;-83
2020/12/25 12:27:58;;;;;;;3.80;2.80;;;;;;;6.03;67.95;99359.34;5052409;28;42094;-83
2020/12/25 12:30:25;;;;;;;5.17;3.30;;;;;;;5.88;68.06;99333.59;5167522;22;44245;-85
2020/12/25 12:32:52;;;;;;;3.17;2.87;;;;;;;6.07;68.11;99366.19;5092161;28;42658;-83
2020/12/25 12:35:20;;;;;;;3.57;3.23;;;;;;;6.04;68.41;99361.06;5108826;28;39912;-83
2020/12/25 12:37:47;;;;;;;3.23;2.60;;;;;;;6.02;68.90;99341.84;5092381;28;43023;-81
2020/12/25 12:40:15;;;;;;;2.47;2.10;;;;;;;6.06;68.96;99338.19;5109697;28;42756;-83
2020/12/25 12:42:42;;;;;;;3.27;2.03;;;;;;;6.19;69.38;99353.50;5147024;22;43721;-84
2020/12/25 12:45:10;;;;;;;4.03;2.27;;;;;;;6.25;69.10;99354.16;5027395;28;41099;-84
2020/12/25 12:47:37;;;;;;;3.27;2.00;;;;;;;6.29;68.01;99360.16;5028688;28;41485;-85
2020/12/25 12:50:05;;;;;;;3.10;1.67;;;;;;;6.29;69.01;99354.91;5031551;28;43238;-83
2020/12/25 12:55:14;;;;;;;3.07;2.00;;;;;;;6.19;69.18;99342.97;5046183;28;39221;-85
2020/12/25 12:57:41;;;;;;;4.40;2.40;;;;;;;6.30;69.19;99364.50;5031404;28;42505;-81
2020/12/25 13:00:08;;;;;;;3.20;2.17;;;;;;;6.33;69.21;99348.59;5047690;28;44853;-81
2020/12/25 13:02:35;;;;;;;2.60;2.00;;;;;;;6.36;69.26;99356.38;5047178;28;42115;-85
2020/12/25 13:05:02;;;;;;;2.33;2.00;;;;;;;6.38;69.56;99350.16;5125709;22;41906;-83
2020/12/25 13:07:30;;;;;;;2.70;1.67;;;;;;;6.33;69.07;99341.56;5051588;28;43815;-80
2020/12/25 13:09:58;;;;;;;5.73;2.27;;;;;;;6.43;68.25;99363.09;5066752;28;42786;-80
2020/12/25 13:12:26;;;;;;;2.70;1.87;;;;;;;6.43;68.14;99352.59;5062835;28;41804;-84
2020/12/25 13:14:53;;;;;;;3.37;2.20;;;;;;;6.33;67.72;99323.16;5050136;28;41008;-83
2020/12/25 13:17:20;;;;;;;4.60;2.63;;;;;;;6.50;67.38;99348.81;5167747;22;42159;-82
2020/12/25 13:19:47;;;;;;;3.00;2.00;;;;;;;6.59;67.59;99348.47;5088121;28;42512;-83
2020/12/25 13:22:14;;;;;;;2.73;2.17;;;;;;;6.60;67.84;99350.19;5070795;28;42371;-84
2020/12/25 13:24:42;;;;;;;2.70;2.00;;;;;;;6.65;68.17;99353.50;5087192;28;39521;-85
2020/12/25 13:27:09;;;;;;;3.53;2.17;;;;;;;6.58;67.11;99352.00;5071426;28;43320;-82
2020/12/25 13:29:37;;;;;;;2.80;2.00;;;;;;;6.46;67.76;99347.22;5135616;22;44005;-84
2020/12/25 13:32:05;;;;;;;2.57;1.97;;;;;;;6.38;68.21;99349.28;5045819;28;42089;-85
2020/12/25 13:34:32;;;;;;;3.97;2.83;;;;;;;6.27;68.56;99346.22;5046521;28;40554;-83
2020/12/25 13:36:59;;;;;;;2.43;2.23;;;;;;;6.25;67.50;99354.16;5046587;28;43179;-83
2020/12/25 13:39:26;;;;;;;5.60;3.63;;;;;;;6.17;67.34;99358.00;5121298;22;44447;-79
2020/12/25 13:41:54;;;;;;;11.27;7.10;;;;;;;5.93;68.06;99336.06;5046377;28;40966;-81
2020/12/25 13:44:21;;;;;;;11.03;7.23;;;;;;;5.76;67.12;99339.25;5030504;28;42252;-81
2020/12/25 13:46:50;;;;;;;6.00;5.27;;;;;;;5.75;67.61;99358.56;5024557;28;42250;-82
2020/12/25 13:49:17;;;;;;;20.53;14.90;;;;;;;5.61;68.07;99350.31;5046995;28;42957;-83
2020/12/25 13:51:44;;;;;;;6.80;5.47;;;;;;;5.61;67.82;99360.81;5141059;22;42663;-84
2020/12/25 13:54:11;;;;;;;5.00;3.10;;;;;;;5.42;67.85;99355.34;5050443;28;40203;-85
2020/12/25 13:56:38;;;;;;;4.10;3.10;;;;;;;5.26;68.31;99347.09;5050806;28;42981;-82
2020/12/25 13:59:05;;;;;;;3.90;3.10;;;;;;;5.28;68.64;99366.31;5065146;28;42747;-82
2020/12/25 14:01:34;;;;;;;5.43;3.40;;;;;;;5.11;68.80;99347.59;5038994;28;43930;-85
2020/12/25 14:04:02;;;;;;;3.17;2.57;;;;;;;5.12;69.15;99361.59;5145560;22;41411;-82
2020/12/25 14:06:31;;;;;;;4.00;3.13;;;;;;;5.14;68.93;99379.00;5065241;28;41641;-80
2020/12/25 14:08:59;;;;;;;3.73;2.93;;;;;;;5.08;69.45;99387.06;5073955;28;42734;-82
2020/12/25 14:11:26;;;;;;;4.77;2.83;;;;;;;5.04;69.68;99385.47;5085082;28;42156;-84
2020/12/25 14:13:53;;;;;;;3.67;2.70;;;;;;;5.04;69.93;99390.72;5073871;28;41553;-85
2020/12/25 14:16:20;;;;;;;3.27;2.30;;;;;;;5.06;70.25;99391.53;5157078;22;42961;-82
2020/12/25 14:18:47;;;;;;;2.40;2.00;;;;;;;4.98;69.98;99380.41;5069341;28;42631;-80
